sensor_id;sensor_type;location;lat;lon;timestamp;P1;durP1;ratioP1;P2;durP2;ratioP2
24813;SDS011;12904;50.088;11.414;2023-08-31T00:01:46;2.15;;;1.60;;
24813;SDS011;12904;50.088;11.414;2023-08-31T00:04:13;6.32;;;1.75;;
24813;SDS011;12904;50.088;11.414;2023-08-31T00:06:42;2.70;;;1.58;;
24813;SDS011;12904;50.088;11.414;2023-08-31T00:09:10;2.67;;;1.73;;
24813;SDS011;12904;50.088;11.414;2023-08-31T00:11:36;1.60;;;1.50;;
24813;SDS011;12904;50.088;11.414;2023-08-31T00:14:02;2.25;;;1.75;;
24813;SDS011;12904;50.088;11.414;2023-08-31T00:16:28;2.53;;;2.00;;
24813;SDS011;12904;50.088;11.414;2023-08-31T00:18:55;2.78;;;1.70;;
24813;SDS011;12904;50.088;11.414;2023-08-31T00:21:21;3.20;;;1.35;;
24813;SDS011;12904;50.088;11.414;2023-08-31T00:23:47;1.98;;;1.40;;
24813;SDS011;12904;50.088;11.414;2023-08-31T00:26:13;1.75;;;1.23;;
24813;SDS011;12904;50.088;11.414;2023-08-31T00:28:39;4.03;;;1.50;;
24813;SDS011;12904;50.088;11.414;2023-08-31T00:31:07;1.60;;;1.40;;
24813;SDS011;12904;50.088;11.414;2023-08-31T00:33:33;4.28;;;1.88;;
24813;SDS011;12904;50.088;11.414;2023-08-31T00:36:00;1.60;;;1.50;;
24813;SDS011;12904;50.088;11.414;2023-08-31T00:38:29;1.20;;;1.10;;
24813;SDS011;12904;50.088;11.414;2023-08-31T00:40:55;1.50;;;1.40;;
24813;SDS011;12904;50.088;11.414;2023-08-31T00:43:21;1.83;;;1.65;;
24813;SDS011;12904;50.088;11.414;2023-08-31T00:45:51;1.52;;;1.42;;
24813;SDS011;12904;50.088;11.414;2023-08-31T00:48:21;1.60;;;1.50;;
24813;SDS011;12904;50.088;11.414;2023-08-31T00:50:47;1.92;;;1.67;;
24813;SDS011;12904;50.088;11.414;2023-08-31T00:53:13;3.17;;;1.70;;
24813;SDS011;12904;50.088;11.414;2023-08-31T00:55:40;1.83;;;1.40;;
24813;SDS011;12904;50.088;11.414;2023-08-31T00:58:06;4.03;;;1.80;;
24813;SDS011;12904;50.088;11.414;2023-08-31T01:03:16;1.55;;;1.45;;
24813;SDS011;12904;50.088;11.414;2023-08-31T01:08:36;5.38;;;2.05;;
24813;SDS011;12904;50.088;11.414;2023-08-31T01:11:13;3.20;;;1.50;;
24813;SDS011;12904;50.088;11.414;2023-08-31T01:13:44;1.90;;;1.70;;
24813;SDS011;12904;50.088;11.414;2023-08-31T01:16:16;5.78;;;1.67;;
24813;SDS011;12904;50.088;11.414;2023-08-31T01:18:43;1.45;;;1.35;;
24813;SDS011;12904;50.088;11.414;2023-08-31T01:21:22;2.25;;;1.52;;
24813;SDS011;12904;50.088;11.414;2023-08-31T01:24:05;2.45;;;1.67;;
24813;SDS011;12904;50.088;11.414;2023-08-31T01:26:31;2.65;;;1.30;;
24813;SDS011;12904;50.088;11.414;2023-08-31T01:28:57;1.52;;;1.40;;
24813;SDS011;12904;50.088;11.414;2023-08-31T01:31:24;1.52;;;1.10;;
24813;SDS011;12904;50.088;11.414;2023-08-31T01:33:50;2.83;;;1.40;;
24813;SDS011;12904;50.088;11.414;2023-08-31T01:36:29;5.88;;;1.80;;
24813;SDS011;12904;50.088;11.414;2023-08-31T01:39:06;1.65;;;1.55;;
24813;SDS011;12904;50.088;11.414;2023-08-31T01:41:48;1.75;;;1.38;;
24813;SDS011;12904;50.088;11.414;2023-08-31T01:44:17;2.78;;;1.70;;
24813;SDS011;12904;50.088;11.414;2023-08-31T01:46:51;2.88;;;1.33;;
24813;SDS011;12904;50.088;11.414;2023-08-31T01:49:20;1.95;;;1.35;;
24813;SDS011;12904;50.088;11.414;2023-08-31T01:51:46;1.85;;;1.35;;
24813;SDS011;12904;50.088;11.414;2023-08-31T01:54:12;1.77;;;1.17;;
24813;SDS011;12904;50.088;11.414;2023-08-31T01:56:38;2.28;;;1.40;;
24813;SDS011;12904;50.088;11.414;2023-08-31T01:59:03;1.35;;;1.25;;
24813;SDS011;12904;50.088;11.414;2023-08-31T02:01:29;4.53;;;1.33;;
24813;SDS011;12904;50.088;11.414;2023-08-31T02:03:57;3.45;;;1.85;;
24813;SDS011;12904;50.088;11.414;2023-08-31T02:06:23;5.25;;;1.25;;
24813;SDS011;12904;50.088;11.414;2023-08-31T02:08:48;2.47;;;1.30;;
24813;SDS011;12904;50.088;11.414;2023-08-31T02:11:14;1.52;;;1.08;;
24813;SDS011;12904;50.088;11.414;2023-08-31T02:13:40;1.02;;;0.93;;
24813;SDS011;12904;50.088;11.414;2023-08-31T02:16:06;4.05;;;1.17;;
24813;SDS011;12904;50.088;11.414;2023-08-31T02:18:32;3.72;;;1.10;;
24813;SDS011;12904;50.088;11.414;2023-08-31T02:20:58;1.33;;;1.23;;
24813;SDS011;12904;50.088;11.414;2023-08-31T02:23:23;5.90;;;1.60;;
24813;SDS011;12904;50.088;11.414;2023-08-31T02:25:49;2.08;;;1.20;;
24813;SDS011;12904;50.088;11.414;2023-08-31T02:28:15;4.45;;;1.40;;
24813;SDS011;12904;50.088;11.414;2023-08-31T02:30:43;1.30;;;1.20;;
24813;SDS011;12904;50.088;11.414;2023-08-31T02:33:11;2.53;;;1.25;;
24813;SDS011;12904;50.088;11.414;2023-08-31T02:35:36;1.55;;;1.30;;
24813;SDS011;12904;50.088;11.414;2023-08-31T02:38:02;1.80;;;1.23;;
24813;SDS011;12904;50.088;11.414;2023-08-31T02:40:28;1.15;;;1.05;;
24813;SDS011;12904;50.088;11.414;2023-08-31T02:42:53;2.10;;;1.50;;
24813;SDS011;12904;50.088;11.414;2023-08-31T02:45:19;2.13;;;1.52;;
24813;SDS011;12904;50.088;11.414;2023-08-31T02:47:45;2.58;;;2.13;;
24813;SDS011;12904;50.088;11.414;2023-08-31T02:50:11;4.20;;;1.77;;
24813;SDS011;12904;50.088;11.414;2023-08-31T02:52:36;2.00;;;1.60;;
24813;SDS011;12904;50.088;11.414;2023-08-31T02:55:02;4.03;;;1.98;;
24813;SDS011;12904;50.088;11.414;2023-08-31T02:57:28;3.63;;;1.90;;
24813;SDS011;12904;50.088;11.414;2023-08-31T02:59:54;5.40;;;1.88;;
24813;SDS011;12904;50.088;11.414;2023-08-31T03:02:19;2.70;;;2.10;;
24813;SDS011;12904;50.088;11.414;2023-08-31T03:04:45;2.25;;;2.05;;
24813;SDS011;12904;50.088;11.414;2023-08-31T03:07:11;3.35;;;1.75;;
24813;SDS011;12904;50.088;11.414;2023-08-31T03:09:39;2.00;;;1.40;;
24813;SDS011;12904;50.088;11.414;2023-08-31T03:12:05;2.55;;;1.67;;
24813;SDS011;12904;50.088;11.414;2023-08-31T03:14:31;1.95;;;1.65;;
24813;SDS011;12904;50.088;11.414;2023-08-31T03:16:56;4.78;;;1.38;;
24813;SDS011;12904;50.088;11.414;2023-08-31T03:19:22;2.03;;;1.75;;
24813;SDS011;12904;50.088;11.414;2023-08-31T03:21:47;2.42;;;1.67;;
24813;SDS011;12904;50.088;11.414;2023-08-31T03:24:13;2.88;;;1.30;;
24813;SDS011;12904;50.088;11.414;2023-08-31T03:26:39;7.43;;;7.13;;
24813;SDS011;12904;50.088;11.414;2023-08-31T03:29:04;1642.03;;;790.83;;
24813;SDS011;12904;50.088;11.414;2023-08-31T03:31:30;2.65;;;1.80;;
24813;SDS011;12904;50.088;11.414;2023-08-31T03:33:56;1188.53;;;89.80;;
24813;SDS011;12904;50.088;11.414;2023-08-31T03:36:22;53.85;;;5.85;;
24813;SDS011;12904;50.088;11.414;2023-08-31T03:38:49;1999.90;;;999.90;;
24813;SDS011;12904;50.088;11.414;2023-08-31T03:41:14;118.50;;;56.45;;
24813;SDS011;12904;50.088;11.414;2023-08-31T03:43:40;1999.90;;;999.90;;
24813;SDS011;12904;50.088;11.414;2023-08-31T03:46:06;230.65;;;21.15;;
24813;SDS011;12904;50.088;11.414;2023-08-31T03:48:31;36.38;;;10.85;;
24813;SDS011;12904;50.088;11.414;2023-08-31T03:50:57;6.05;;;2.55;;
24813;SDS011;12904;50.088;11.414;2023-08-31T03:53:23;160.57;;;18.13;;
24813;SDS011;12904;50.088;11.414;2023-08-31T03:55:49;5.03;;;2.75;;
24813;SDS011;12904;50.088;11.414;2023-08-31T03:58:14;3.75;;;2.60;;
24813;SDS011;12904;50.088;11.414;2023-08-31T04:00:40;4.07;;;3.10;;
24813;SDS011;12904;50.088;11.414;2023-08-31T04:03:07;5.13;;;3.20;;
24813;SDS011;12904;50.088;11.414;2023-08-31T04:05:34;3.67;;;2.40;;
24813;SDS011;12904;50.088;11.414;2023-08-31T04:08:00;4.38;;;3.08;;
24813;SDS011;12904;50.088;11.414;2023-08-31T04:10:26;4.63;;;2.90;;
24813;SDS011;12904;50.088;11.414;2023-08-31T04:12:52;6.65;;;3.38;;
24813;SDS011;12904;50.088;11.414;2023-08-31T04:15:17;4.60;;;3.47;;
24813;SDS011;12904;50.088;11.414;2023-08-31T04:17:43;4.32;;;3.25;;
24813;SDS011;12904;50.088;11.414;2023-08-31T04:20:09;3.00;;;2.60;;
24813;SDS011;12904;50.088;11.414;2023-08-31T04:22:37;6.82;;;2.75;;
24813;SDS011;12904;50.088;11.414;2023-08-31T04:25:03;5.70;;;3.42;;
24813;SDS011;12904;50.088;11.414;2023-08-31T04:27:29;4.70;;;3.22;;
24813;SDS011;12904;50.088;11.414;2023-08-31T04:29:56;270.30;;;238.68;;
24813;SDS011;12904;50.088;11.414;2023-08-31T04:32:23;254.05;;;163.25;;
24813;SDS011;12904;50.088;11.414;2023-08-31T04:34:50;43.28;;;40.92;;
24813;SDS011;12904;50.088;11.414;2023-08-31T04:37:16;175.00;;;162.90;;
24813;SDS011;12904;50.088;11.414;2023-08-31T04:39:42;666.28;;;398.92;;
24813;SDS011;12904;50.088;11.414;2023-08-31T04:42:07;159.05;;;72.93;;
24813;SDS011;12904;50.088;11.414;2023-08-31T04:44:33;114.22;;;74.55;;
24813;SDS011;12904;50.088;11.414;2023-08-31T04:46:59;3.20;;;2.92;;
24813;SDS011;12904;50.088;11.414;2023-08-31T04:49:25;8.45;;;7.88;;
24813;SDS011;12904;50.088;11.414;2023-08-31T04:51:51;4.43;;;3.33;;
24813;SDS011;12904;50.088;11.414;2023-08-31T04:54:17;7.57;;;4.00;;
24813;SDS011;12904;50.088;11.414;2023-08-31T04:56:43;11.65;;;4.15;;
24813;SDS011;12904;50.088;11.414;2023-08-31T04:59:09;4.57;;;3.35;;
24813;SDS011;12904;50.088;11.414;2023-08-31T05:01:34;4.28;;;3.85;;
24813;SDS011;12904;50.088;11.414;2023-08-31T05:04:00;8.38;;;3.80;;
24813;SDS011;12904;50.088;11.414;2023-08-31T05:06:25;4.15;;;3.75;;
24813;SDS011;12904;50.088;11.414;2023-08-31T05:08:51;7.82;;;4.22;;
24813;SDS011;12904;50.088;11.414;2023-08-31T05:11:17;6.72;;;4.18;;
24813;SDS011;12904;50.088;11.414;2023-08-31T05:13:43;10.50;;;4.63;;
24813;SDS011;12904;50.088;11.414;2023-08-31T05:16:09;6.00;;;4.93;;
24813;SDS011;12904;50.088;11.414;2023-08-31T05:18:35;6.72;;;6.13;;
24813;SDS011;12904;50.088;11.414;2023-08-31T05:21:01;6.38;;;5.40;;
24813;SDS011;12904;50.088;11.414;2023-08-31T05:23:28;5.47;;;4.95;;
24813;SDS011;12904;50.088;11.414;2023-08-31T05:25:55;6.10;;;5.57;;
24813;SDS011;12904;50.088;11.414;2023-08-31T05:28:21;4.90;;;4.40;;
24813;SDS011;12904;50.088;11.414;2023-08-31T05:30:51;8.38;;;5.82;;
24813;SDS011;12904;50.088;11.414;2023-08-31T05:33:17;4.68;;;4.28;;
24813;SDS011;12904;50.088;11.414;2023-08-31T05:35:43;5.88;;;5.32;;
24813;SDS011;12904;50.088;11.414;2023-08-31T05:38:09;6.53;;;5.93;;
24813;SDS011;12904;50.088;11.414;2023-08-31T05:40:35;9.35;;;5.95;;
24813;SDS011;12904;50.088;11.414;2023-08-31T05:43:01;7.55;;;6.75;;
24813;SDS011;12904;50.088;11.414;2023-08-31T05:45:28;7.90;;;7.00;;
24813;SDS011;12904;50.088;11.414;2023-08-31T05:47:57;8.02;;;7.32;;
24813;SDS011;12904;50.088;11.414;2023-08-31T05:50:22;11.40;;;7.85;;
24813;SDS011;12904;50.088;11.414;2023-08-31T05:52:48;8.98;;;7.97;;
24813;SDS011;12904;50.088;11.414;2023-08-31T05:55:14;9.27;;;8.38;;
24813;SDS011;12904;50.088;11.414;2023-08-31T05:57:39;10.38;;;9.30;;
24813;SDS011;12904;50.088;11.414;2023-08-31T06:00:05;9.93;;;9.02;;
24813;SDS011;12904;50.088;11.414;2023-08-31T06:02:34;8.95;;;8.25;;
24813;SDS011;12904;50.088;11.414;2023-08-31T06:05:00;10.15;;;8.35;;
24813;SDS011;12904;50.088;11.414;2023-08-31T06:07:27;12.63;;;7.10;;
24813;SDS011;12904;50.088;11.414;2023-08-31T06:09:54;7.18;;;6.47;;
24813;SDS011;12904;50.088;11.414;2023-08-31T06:12:20;11.05;;;7.55;;
24813;SDS011;12904;50.088;11.414;2023-08-31T06:14:46;7.30;;;5.95;;
24813;SDS011;12904;50.088;11.414;2023-08-31T06:17:11;6.78;;;6.03;;
24813;SDS011;12904;50.088;11.414;2023-08-31T06:19:38;6.30;;;5.75;;
24813;SDS011;12904;50.088;11.414;2023-08-31T06:22:04;10.32;;;6.30;;
24813;SDS011;12904;50.088;11.414;2023-08-31T06:24:30;8.73;;;6.63;;
24813;SDS011;12904;50.088;11.414;2023-08-31T06:26:57;47.67;;;45.78;;
24813;SDS011;12904;50.088;11.414;2023-08-31T06:29:23;40.90;;;39.10;;
24813;SDS011;12904;50.088;11.414;2023-08-31T06:31:48;43.45;;;41.55;;
24813;SDS011;12904;50.088;11.414;2023-08-31T06:34:14;39.92;;;37.92;;
24813;SDS011;12904;50.088;11.414;2023-08-31T06:36:39;39.10;;;37.30;;
24813;SDS011;12904;50.088;11.414;2023-08-31T06:39:06;33.58;;;31.98;;
24813;SDS011;12904;50.088;11.414;2023-08-31T06:41:32;110.35;;;104.95;;
24813;SDS011;12904;50.088;11.414;2023-08-31T06:43:57;109.70;;;103.97;;
24813;SDS011;12904;50.088;11.414;2023-08-31T06:46:23;55.88;;;53.58;;
24813;SDS011;12904;50.088;11.414;2023-08-31T06:48:48;213.15;;;201.50;;
24813;SDS011;12904;50.088;11.414;2023-08-31T06:51:15;149.50;;;141.15;;
24813;SDS011;12904;50.088;11.414;2023-08-31T06:53:41;132.98;;;126.18;;
24813;SDS011;12904;50.088;11.414;2023-08-31T06:56:08;119.25;;;113.00;;
24813;SDS011;12904;50.088;11.414;2023-08-31T06:58:34;107.78;;;102.38;;
24813;SDS011;12904;50.088;11.414;2023-08-31T07:01:00;1999.90;;;999.90;;
24813;SDS011;12904;50.088;11.414;2023-08-31T07:03:26;1999.90;;;999.90;;
24813;SDS011;12904;50.088;11.414;2023-08-31T07:05:51;1999.90;;;999.90;;
24813;SDS011;12904;50.088;11.414;2023-08-31T07:08:17;1999.90;;;999.90;;
24813;SDS011;12904;50.088;11.414;2023-08-31T07:10:43;1999.90;;;999.90;;
24813;SDS011;12904;50.088;11.414;2023-08-31T07:13:08;1999.90;;;999.90;;
24813;SDS011;12904;50.088;11.414;2023-08-31T07:15:34;1999.90;;;999.90;;
24813;SDS011;12904;50.088;11.414;2023-08-31T07:18:00;302.85;;;286.63;;
24813;SDS011;12904;50.088;11.414;2023-08-31T07:20:26;302.23;;;285.48;;
24813;SDS011;12904;50.088;11.414;2023-08-31T07:22:51;222.50;;;210.10;;
24813;SDS011;12904;50.088;11.414;2023-08-31T07:25:17;263.65;;;249.18;;
24813;SDS011;12904;50.088;11.414;2023-08-31T07:27:43;237.57;;;224.52;;
24813;SDS011;12904;50.088;11.414;2023-08-31T07:30:09;224.57;;;212.30;;
24813;SDS011;12904;50.088;11.414;2023-08-31T07:32:35;202.30;;;191.73;;
24813;SDS011;12904;50.088;11.414;2023-08-31T07:35:01;122.68;;;116.75;;
24813;SDS011;12904;50.088;11.414;2023-08-31T07:37:29;104.53;;;99.03;;
24813;SDS011;12904;50.088;11.414;2023-08-31T07:39:55;81.97;;;78.38;;
24813;SDS011;12904;50.088;11.414;2023-08-31T07:42:21;80.22;;;76.32;;
24813;SDS011;12904;50.088;11.414;2023-08-31T07:44:46;61.42;;;58.90;;
24813;SDS011;12904;50.088;11.414;2023-08-31T07:47:12;1999.90;;;999.90;;
24813;SDS011;12904;50.088;11.414;2023-08-31T07:49:37;1999.90;;;999.90;;
24813;SDS011;12904;50.088;11.414;2023-08-31T07:52:03;1999.90;;;999.90;;
24813;SDS011;12904;50.088;11.414;2023-08-31T07:54:29;1999.90;;;999.90;;
24813;SDS011;12904;50.088;11.414;2023-08-31T07:56:55;117.75;;;110.80;;
24813;SDS011;12904;50.088;11.414;2023-08-31T07:59:21;209.50;;;198.40;;
24813;SDS011;12904;50.088;11.414;2023-08-31T08:01:47;2.72;;;2.50;;
24813;SDS011;12904;50.088;11.414;2023-08-31T08:04:13;4.07;;;3.70;;
24813;SDS011;12904;50.088;11.414;2023-08-31T08:06:39;1999.90;;;999.90;;
24813;SDS011;12904;50.088;11.414;2023-08-31T08:09:04;1999.90;;;999.90;;
24813;SDS011;12904;50.088;11.414;2023-08-31T08:11:31;60.97;;;58.33;;
24813;SDS011;12904;50.088;11.414;2023-08-31T08:13:56;1999.90;;;999.90;;
24813;SDS011;12904;50.088;11.414;2023-08-31T08:16:22;1999.90;;;999.90;;
24813;SDS011;12904;50.088;11.414;2023-08-31T08:18:49;1999.90;;;999.90;;
24813;SDS011;12904;50.088;11.414;2023-08-31T08:21:15;1999.90;;;999.90;;
24813;SDS011;12904;50.088;11.414;2023-08-31T08:23:41;1515.35;;;764.30;;
24813;SDS011;12904;50.088;11.414;2023-08-31T08:26:06;1999.90;;;999.90;;
24813;SDS011;12904;50.088;11.414;2023-08-31T08:28:33;1999.90;;;999.90;;
24813;SDS011;12904;50.088;11.414;2023-08-31T08:31:02;1999.90;;;999.90;;
24813;SDS011;12904;50.088;11.414;2023-08-31T08:33:28;1999.90;;;999.90;;
24813;SDS011;12904;50.088;11.414;2023-08-31T08:35:57;1999.90;;;999.90;;
24813;SDS011;12904;50.088;11.414;2023-08-31T08:38:22;1999.90;;;999.90;;
24813;SDS011;12904;50.088;11.414;2023-08-31T08:40:48;1999.90;;;999.90;;
24813;SDS011;12904;50.088;11.414;2023-08-31T08:43:14;32.10;;;31.10;;
24813;SDS011;12904;50.088;11.414;2023-08-31T08:45:40;27.30;;;25.83;;
24813;SDS011;12904;50.088;11.414;2023-08-31T08:48:08;27.55;;;25.88;;
24813;SDS011;12904;50.088;11.414;2023-08-31T08:50:34;43.33;;;29.35;;
24813;SDS011;12904;50.088;11.414;2023-08-31T08:53:01;98.00;;;91.93;;
24813;SDS011;12904;50.088;11.414;2023-08-31T08:55:28;1.48;;;1.27;;
24813;SDS011;12904;50.088;11.414;2023-08-31T08:57:55;50.35;;;15.25;;
24813;SDS011;12904;50.088;11.414;2023-08-31T09:00:21;155.40;;;82.93;;
24813;SDS011;12904;50.088;11.414;2023-08-31T09:02:46;1.48;;;1.38;;
24813;SDS011;12904;50.088;11.414;2023-08-31T09:05:12;2.72;;;1.20;;
24813;SDS011;12904;50.088;11.414;2023-08-31T09:07:38;6.47;;;2.60;;
24813;SDS011;12904;50.088;11.414;2023-08-31T09:10:24;4.25;;;1.77;;
24813;SDS011;12904;50.088;11.414;2023-08-31T09:12:58;3.15;;;1.30;;
24813;SDS011;12904;50.088;11.414;2023-08-31T09:15:25;11.65;;;10.82;;
24813;SDS011;12904;50.088;11.414;2023-08-31T09:17:51;21.25;;;19.85;;
24813;SDS011;12904;50.088;11.414;2023-08-31T09:20:16;1.08;;;0.98;;
24813;SDS011;12904;50.088;11.414;2023-08-31T09:22:42;13.15;;;12.27;;
24813;SDS011;12904;50.088;11.414;2023-08-31T09:25:09;1.63;;;1.10;;
24813;SDS011;12904;50.088;11.414;2023-08-31T09:27:38;7.50;;;1.25;;
24813;SDS011;12904;50.088;11.414;2023-08-31T09:30:06;1.13;;;1.02;;
24813;SDS011;12904;50.088;11.414;2023-08-31T09:32:32;1471.38;;;114.55;;
24813;SDS011;12904;50.088;11.414;2023-08-31T09:34:57;375.52;;;22.52;;
24813;SDS011;12904;50.088;11.414;2023-08-31T09:37:27;143.85;;;15.43;;
24813;SDS011;12904;50.088;11.414;2023-08-31T09:39:53;1999.90;;;999.90;;
24813;SDS011;12904;50.088;11.414;2023-08-31T09:42:19;276.92;;;31.77;;
24813;SDS011;12904;50.088;11.414;2023-08-31T09:44:45;479.58;;;150.55;;
24813;SDS011;12904;50.088;11.414;2023-08-31T09:47:15;103.82;;;12.93;;
24813;SDS011;12904;50.088;11.414;2023-08-31T09:49:43;2.15;;;1.30;;
24813;SDS011;12904;50.088;11.414;2023-08-31T09:52:10;3.17;;;1.40;;
24813;SDS011;12904;50.088;11.414;2023-08-31T09:54:37;2.28;;;1.50;;
24813;SDS011;12904;50.088;11.414;2023-08-31T09:57:04;3.83;;;1.40;;
24813;SDS011;12904;50.088;11.414;2023-08-31T09:59:30;3.40;;;1.50;;
24813;SDS011;12904;50.088;11.414;2023-08-31T10:01:56;4.25;;;1.40;;
24813;SDS011;12904;50.088;11.414;2023-08-31T10:04:22;2.70;;;1.50;;
24813;SDS011;12904;50.088;11.414;2023-08-31T10:06:48;2.55;;;1.17;;
24813;SDS011;12904;50.088;11.414;2023-08-31T10:09:14;2.75;;;1.40;;
24813;SDS011;12904;50.088;11.414;2023-08-31T10:11:41;2.13;;;1.20;;
24813;SDS011;12904;50.088;11.414;2023-08-31T10:14:08;3.92;;;1.25;;
24813;SDS011;12904;50.088;11.414;2023-08-31T10:16:35;2.42;;;1.05;;
24813;SDS011;12904;50.088;11.414;2023-08-31T10:19:04;2.13;;;1.38;;
24813;SDS011;12904;50.088;11.414;2023-08-31T10:21:29;3.30;;;1.58;;
24813;SDS011;12904;50.088;11.414;2023-08-31T10:23:56;7.18;;;1.35;;
24813;SDS011;12904;50.088;11.414;2023-08-31T10:26:23;2.65;;;1.40;;
24813;SDS011;12904;50.088;11.414;2023-08-31T10:28:50;2.22;;;1.48;;
24813;SDS011;12904;50.088;11.414;2023-08-31T10:31:16;2.47;;;1.60;;
24813;SDS011;12904;50.088;11.414;2023-08-31T10:36:14;3.80;;;1.40;;
24813;SDS011;12904;50.088;11.414;2023-08-31T10:38:42;2.15;;;1.52;;
24813;SDS011;12904;50.088;11.414;2023-08-31T10:43:46;3.58;;;1.52;;
24813;SDS011;12904;50.088;11.414;2023-08-31T10:46:24;1.52;;;1.10;;
24813;SDS011;12904;50.088;11.414;2023-08-31T10:48:58;3.55;;;1.38;;
24813;SDS011;12904;50.088;11.414;2023-08-31T10:51:39;10.95;;;1.58;;
24813;SDS011;12904;50.088;11.414;2023-08-31T10:59:26;1557.40;;;793.70;;
24813;SDS011;12904;50.088;11.414;2023-08-31T11:02:05;176.32;;;128.85;;
24813;SDS011;12904;50.088;11.414;2023-08-31T11:04:38;1999.90;;;999.90;;
24813;SDS011;12904;50.088;11.414;2023-08-31T11:07:35;3.05;;;1.20;;
24813;SDS011;12904;50.088;11.414;2023-08-31T11:12:37;1.75;;;1.02;;
24813;SDS011;12904;50.088;11.414;2023-08-31T11:15:04;2.47;;;1.10;;
24813;SDS011;12904;50.088;11.414;2023-08-31T11:17:30;2.03;;;1.15;;
24813;SDS011;12904;50.088;11.414;2023-08-31T11:19:58;3.55;;;1.00;;
24813;SDS011;12904;50.088;11.414;2023-08-31T11:22:25;1.95;;;1.13;;
24813;SDS011;12904;50.088;11.414;2023-08-31T11:24:52;2.13;;;1.05;;
24813;SDS011;12904;50.088;11.414;2023-08-31T11:27:20;7.15;;;1.27;;
24813;SDS011;12904;50.088;11.414;2023-08-31T11:29:46;2.65;;;1.00;;
24813;SDS011;12904;50.088;11.414;2023-08-31T11:32:13;4.65;;;0.90;;
24813;SDS011;12904;50.088;11.414;2023-08-31T11:34:44;1.30;;;1.00;;
24813;SDS011;12904;50.088;11.414;2023-08-31T11:37:11;2.95;;;0.80;;
24813;SDS011;12904;50.088;11.414;2023-08-31T11:39:42;2.53;;;1.23;;
24813;SDS011;12904;50.088;11.414;2023-08-31T11:42:20;2.05;;;0.90;;
24813;SDS011;12904;50.088;11.414;2023-08-31T11:44:47;1.83;;;1.23;;
24813;SDS011;12904;50.088;11.414;2023-08-31T11:47:14;270.23;;;156.52;;
24813;SDS011;12904;50.088;11.414;2023-08-31T11:49:43;872.10;;;251.55;;
24813;SDS011;12904;50.088;11.414;2023-08-31T11:52:10;1999.90;;;999.90;;
24813;SDS011;12904;50.088;11.414;2023-08-31T11:54:38;1504.78;;;754.35;;
24813;SDS011;12904;50.088;11.414;2023-08-31T11:57:08;1999.90;;;999.90;;
24813;SDS011;12904;50.088;11.414;2023-08-31T11:59:37;55.55;;;8.35;;
24813;SDS011;12904;50.088;11.414;2023-08-31T12:02:07;17.85;;;4.13;;
24813;SDS011;12904;50.088;11.414;2023-08-31T12:04:33;2.67;;;1.20;;
24813;SDS011;12904;50.088;11.414;2023-08-31T12:07:07;2.70;;;1.10;;
24813;SDS011;12904;50.088;11.414;2023-08-31T12:09:33;1.63;;;1.10;;
24813;SDS011;12904;50.088;11.414;2023-08-31T12:11:58;1.73;;;1.08;;
24813;SDS011;12904;50.088;11.414;2023-08-31T12:14:25;3.10;;;1.08;;
24813;SDS011;12904;50.088;11.414;2023-08-31T12:16:53;2.47;;;1.15;;
24813;SDS011;12904;50.088;11.414;2023-08-31T12:19:29;2.13;;;1.10;;
24813;SDS011;12904;50.088;11.414;2023-08-31T12:21:56;1.75;;;1.10;;
24813;SDS011;12904;50.088;11.414;2023-08-31T12:24:22;3.15;;;1.05;;
24813;SDS011;12904;50.088;11.414;2023-08-31T12:26:48;1.77;;;1.05;;
24813;SDS011;12904;50.088;11.414;2023-08-31T12:29:15;5.88;;;1.08;;
24813;SDS011;12904;50.088;11.414;2023-08-31T12:31:41;1.75;;;0.85;;
24813;SDS011;12904;50.088;11.414;2023-08-31T12:34:08;1.38;;;0.90;;
24813;SDS011;12904;50.088;11.414;2023-08-31T12:36:35;2.40;;;1.00;;
24813;SDS011;12904;50.088;11.414;2023-08-31T12:41:37;3.08;;;1.08;;
24813;SDS011;12904;50.088;11.414;2023-08-31T12:44:04;1.52;;;1.13;;
24813;SDS011;12904;50.088;11.414;2023-08-31T12:46:30;3.75;;;1.30;;
24813;SDS011;12904;50.088;11.414;2023-08-31T12:48:56;3.25;;;1.10;;
24813;SDS011;12904;50.088;11.414;2023-08-31T12:51:22;2.08;;;1.08;;
24813;SDS011;12904;50.088;11.414;2023-08-31T12:53:48;1.90;;;1.00;;
24813;SDS011;12904;50.088;11.414;2023-08-31T12:56:14;3.65;;;1.38;;
24813;SDS011;12904;50.088;11.414;2023-08-31T12:58:46;3.08;;;1.00;;
24813;SDS011;12904;50.088;11.414;2023-08-31T13:01:15;1.67;;;1.25;;
24813;SDS011;12904;50.088;11.414;2023-08-31T13:03:43;6.22;;;1.20;;
24813;SDS011;12904;50.088;11.414;2023-08-31T13:06:09;2.15;;;1.25;;
24813;SDS011;12904;50.088;11.414;2023-08-31T13:08:35;1.27;;;0.93;;
24813;SDS011;12904;50.088;11.414;2023-08-31T13:11:01;1.95;;;1.00;;
24813;SDS011;12904;50.088;11.414;2023-08-31T13:13:28;1.85;;;1.10;;
24813;SDS011;12904;50.088;11.414;2023-08-31T13:15:54;4.40;;;1.23;;
24813;SDS011;12904;50.088;11.414;2023-08-31T13:18:20;2.63;;;1.15;;
24813;SDS011;12904;50.088;11.414;2023-08-31T13:20:54;2.22;;;0.93;;
24813;SDS011;12904;50.088;11.414;2023-08-31T13:23:22;1.50;;;1.05;;
24813;SDS011;12904;50.088;11.414;2023-08-31T13:25:49;3.67;;;1.20;;
24813;SDS011;12904;50.088;11.414;2023-08-31T13:28:17;1.80;;;1.00;;
24813;SDS011;12904;50.088;11.414;2023-08-31T13:30:43;1.95;;;1.00;;
24813;SDS011;12904;50.088;11.414;2023-08-31T13:33:09;2.08;;;1.20;;
24813;SDS011;12904;50.088;11.414;2023-08-31T13:35:34;2.30;;;1.10;;
24813;SDS011;12904;50.088;11.414;2023-08-31T13:38:01;3.15;;;1.10;;
24813;SDS011;12904;50.088;11.414;2023-08-31T13:40:27;2.50;;;1.25;;
24813;SDS011;12904;50.088;11.414;2023-08-31T13:42:54;2.33;;;1.30;;
24813;SDS011;12904;50.088;11.414;2023-08-31T13:45:26;2.50;;;1.20;;
24813;SDS011;12904;50.088;11.414;2023-08-31T13:47:52;3.38;;;1.10;;
24813;SDS011;12904;50.088;11.414;2023-08-31T13:50:18;2.92;;;1.48;;
24813;SDS011;12904;50.088;11.414;2023-08-31T13:52:44;4.15;;;1.30;;
24813;SDS011;12904;50.088;11.414;2023-08-31T13:55:11;2.17;;;1.63;;
24813;SDS011;12904;50.088;11.414;2023-08-31T13:57:38;2.95;;;1.52;;
24813;SDS011;12904;50.088;11.414;2023-08-31T14:00:06;2.38;;;1.10;;
24813;SDS011;12904;50.088;11.414;2023-08-31T14:02:34;2.15;;;1.00;;
24813;SDS011;12904;50.088;11.414;2023-08-31T14:05:03;3.90;;;1.00;;
24813;SDS011;12904;50.088;11.414;2023-08-31T14:07:33;2.60;;;1.17;;
24813;SDS011;12904;50.088;11.414;2023-08-31T14:09:59;1.52;;;0.90;;
24813;SDS011;12904;50.088;11.414;2023-08-31T14:12:24;1.88;;;1.02;;
24813;SDS011;12904;50.088;11.414;2023-08-31T14:14:53;1.35;;;0.90;;
24813;SDS011;12904;50.088;11.414;2023-08-31T14:17:19;2.00;;;1.00;;
24813;SDS011;12904;50.088;11.414;2023-08-31T14:19:45;2.60;;;1.67;;
24813;SDS011;12904;50.088;11.414;2023-08-31T14:22:11;4.13;;;1.20;;
24813;SDS011;12904;50.088;11.414;2023-08-31T14:24:37;1.55;;;1.08;;
24813;SDS011;12904;50.088;11.414;2023-08-31T14:27:03;2.17;;;0.90;;
24813;SDS011;12904;50.088;11.414;2023-08-31T14:29:29;68.20;;;52.30;;
24813;SDS011;12904;50.088;11.414;2023-08-31T14:31:55;2.38;;;1.10;;
24813;SDS011;12904;50.088;11.414;2023-08-31T14:34:21;1.92;;;0.98;;
24813;SDS011;12904;50.088;11.414;2023-08-31T14:36:47;2.78;;;1.10;;
24813;SDS011;12904;50.088;11.414;2023-08-31T14:39:13;2.70;;;1.10;;
24813;SDS011;12904;50.088;11.414;2023-08-31T14:41:39;1.73;;;1.38;;